createdAt,value
2023-04-01T00:00:55.782Z,233.80
2023-04-01T00:01:55.793Z,232.70
2023-04-01T00:02:55.810Z,230.00
2023-04-01T00:03:55.890Z,218.60
2023-04-01T00:04:55.743Z,209.50
2023-04-01T00:05:55.761Z,217.60
2023-04-01T00:06:55.724Z,214.70
2023-04-01T00:07:55.719Z,210.30
2023-04-01T00:08:55.730Z,213.30
2023-04-01T00:09:55.701Z,220.70
2023-04-01T00:10:55.687Z,225.20
2023-04-01T00:11:55.676Z,234.20
2023-04-01T00:12:55.679Z,231.40
2023-04-01T00:13:55.691Z,236.60
2023-04-01T00:14:55.652Z,235.70
2023-04-01T00:15:56.197Z,241.70
2023-04-01T00:16:55.652Z,247.70
2023-04-01T00:17:55.642Z,235.30
2023-04-01T00:18:55.636Z,235.20
2023-04-01T00:19:55.591Z,231.20
2023-04-01T00:20:55.606Z,222.10
2023-04-01T00:21:55.590Z,220.80
2023-04-01T00:22:55.576Z,224.20
2023-04-01T00:23:55.556Z,232.60
2023-04-01T00:24:55.585Z,240.20
2023-04-01T00:25:55.547Z,228.20
2023-04-01T00:26:55.530Z,236.70
2023-04-01T00:27:55.508Z,233.60
2023-04-01T00:28:55.537Z,225.50
2023-04-01T00:29:55.520Z,225.50
2023-04-01T00:30:55.488Z,224.20
2023-04-01T00:31:55.470Z,211.20
2023-04-01T00:32:55.530Z,216.00
2023-04-01T00:33:55.506Z,223.10
2023-04-01T00:34:55.488Z,208.00
2023-04-01T00:35:55.467Z,207.10
2023-04-01T00:36:55.426Z,214.70
2023-04-01T00:37:55.435Z,219.40
2023-04-01T00:38:55.416Z,232.30
2023-04-01T00:39:55.425Z,222.40
2023-04-01T00:40:55.385Z,222.40
2023-04-01T00:41:55.399Z,226.70
2023-04-01T00:42:55.370Z,235.10
2023-04-01T00:43:55.358Z,226.60
2023-04-01T00:44:55.384Z,219.40
2023-04-01T00:45:55.344Z,214.90
2023-04-01T00:46:55.388Z,219.20
2023-04-01T00:47:55.349Z,235.20
2023-04-01T00:48:55.321Z,237.40
2023-04-01T00:49:55.329Z,240.00
2023-04-01T00:50:55.307Z,226.00
2023-04-01T00:51:55.285Z,232.00
2023-04-01T00:52:55.270Z,239.50
2023-04-01T00:53:55.275Z,238.20
2023-04-01T00:54:55.277Z,231.40
2023-04-01T00:55:55.269Z,231.00
2023-04-01T00:56:55.273Z,236.70
2023-04-01T00:57:55.208Z,231.00
2023-04-01T00:58:55.208Z,219.50
2023-04-01T00:59:55.215Z,219.00
2023-04-01T01:00:55.250Z,222.60
2023-04-01T01:01:55.244Z,215.00
2023-04-01T01:02:55.165Z,223.30
2023-04-01T01:03:55.148Z,216.90
2023-04-01T01:04:55.170Z,218.20
2023-04-01T01:05:55.149Z,214.30
2023-04-01T01:06:55.123Z,219.30
2023-04-01T01:07:55.185Z,216.50
2023-04-01T01:08:55.099Z,213.70
2023-04-01T01:09:55.108Z,213.60
2023-04-01T01:10:55.114Z,222.00
2023-04-01T01:11:55.079Z,210.10
2023-04-01T01:12:55.077Z,219.60
2023-04-01T01:13:55.038Z,230.90
2023-04-01T01:14:55.060Z,227.10
2023-04-01T01:15:55.077Z,226.70
2023-04-01T01:16:55.150Z,228.30
2023-04-01T01:17:55.043Z,235.10
2023-04-01T01:18:55.051Z,223.00
2023-04-01T01:19:55.025Z,212.00
2023-04-01T01:20:54.977Z,213.80
2023-04-01T01:21:55.035Z,218.10
2023-04-01T01:22:54.959Z,223.30
2023-04-01T01:23:54.986Z,212.40
2023-04-01T01:24:54.950Z,222.30
2023-04-01T01:25:54.932Z,221.60
2023-04-01T01:26:54.920Z,214.70
2023-04-01T01:27:54.909Z,223.80
2023-04-01T01:28:54.896Z,228.80
2023-04-01T01:29:54.934Z,227.80
2023-04-01T01:30:54.938Z,229.70
2023-04-01T01:31:54.879Z,225.10
2023-04-01T01:32:54.893Z,224.10
2023-04-01T01:33:54.844Z,217.00
2023-04-01T01:34:54.881Z,221.80
2023-04-01T01:35:54.850Z,216.00
2023-04-01T01:36:54.854Z,212.70
2023-04-01T01:37:54.807Z,207.90
2023-04-01T01:38:54.789Z,222.80
2023-04-01T01:39:54.794Z,218.30
2023-04-01T01:40:54.800Z,222.50
2023-04-01T01:41:54.773Z,222.90
2023-04-01T01:42:54.749Z,212.40
2023-04-01T01:43:54.737Z,208.70
2023-04-01T01:44:54.766Z,207.20
2023-04-01T01:45:54.737Z,212.70
2023-04-01T01:46:54.715Z,218.90
2023-04-01T01:47:54.809Z,209.00
2023-04-01T01:48:54.690Z,211.30
2023-04-01T01:49:54.802Z,222.40
2023-04-01T01:50:54.670Z,231.60
2023-04-01T01:51:54.656Z,233.60
2023-04-01T01:52:54.654Z,227.10
2023-04-01T01:53:54.643Z,219.10
2023-04-01T01:54:54.677Z,215.60
2023-04-01T01:55:54.630Z,213.70
2023-04-01T01:56:54.685Z,216.10
2023-04-01T01:57:54.587Z,224.10
2023-04-01T01:58:54.610Z,225.10
2023-04-01T01:59:54.603Z,218.40
2023-04-01T02:00:54.578Z,226.90
2023-04-01T02:01:54.607Z,214.80
2023-04-01T02:02:54.597Z,214.80
2023-04-01T02:03:54.535Z,210.60
2023-04-01T02:04:54.652Z,209.90
2023-04-01T02:05:54.524Z,220.30
2023-04-01T02:06:54.513Z,233.80
2023-04-01T02:07:54.501Z,234.50
2023-04-01T02:08:54.518Z,239.10
2023-04-01T02:09:54.526Z,234.90
2023-04-01T02:10:54.492Z,236.70
2023-04-01T02:11:54.463Z,245.60
2023-04-01T02:12:54.456Z,255.30
2023-04-01T02:13:54.442Z,251.70
2023-04-01T02:14:54.449Z,248.00
2023-04-01T02:15:54.531Z,247.00
2023-04-01T02:16:54.495Z,240.60
2023-04-01T02:17:54.421Z,240.90
2023-04-01T02:18:54.384Z,248.80
2023-04-01T02:19:54.362Z,247.70
2023-04-01T02:20:54.440Z,249.20
2023-04-01T02:21:54.384Z,257.90
2023-04-01T02:22:54.354Z,253.20
2023-04-01T02:23:54.330Z,248.00
2023-04-01T02:24:54.338Z,248.80
2023-04-01T02:25:54.344Z,255.90
2023-04-01T02:26:54.308Z,252.80
2023-04-01T02:27:54.281Z,260.90
2023-04-01T02:28:54.288Z,252.70
2023-04-01T02:29:54.348Z,259.30
2023-04-01T02:30:54.304Z,264.80
2023-04-01T02:31:54.343Z,257.20
2023-04-01T02:32:54.283Z,247.90
2023-04-01T02:33:54.234Z,241.00
2023-04-01T02:35:00.698Z,238.40
2023-04-01T02:35:54.267Z,245.30
2023-04-01T02:36:54.198Z,246.40
2023-04-01T02:37:54.184Z,255.90
2023-04-01T02:38:54.174Z,251.50
2023-04-01T02:39:54.179Z,257.00
2023-04-01T02:40:54.184Z,262.60
2023-04-01T02:41:54.165Z,265.60
2023-04-01T02:42:54.144Z,262.00
2023-04-01T02:43:54.143Z,258.90
2023-04-01T02:44:54.130Z,249.40
2023-04-01T02:45:54.153Z,254.40
2023-04-01T02:46:54.182Z,251.50
2023-04-01T02:47:54.158Z,257.90
2023-04-01T02:48:54.134Z,263.00
2023-04-01T02:49:54.090Z,257.40
2023-04-01T02:50:54.087Z,254.60
2023-04-01T02:51:54.046Z,250.40
2023-04-01T02:52:54.055Z,257.20
2023-04-01T02:53:54.027Z,262.50
2023-04-01T02:54:54.022Z,265.20
2023-04-01T02:55:54.073Z,265.50
2023-04-01T02:56:54.028Z,255.30
2023-04-01T02:57:53.989Z,252.70
2023-04-01T02:58:53.999Z,248.40
2023-04-01T02:59:54.038Z,257.50
2023-04-01T03:00:53.993Z,253.60
2023-04-01T03:01:53.999Z,251.30
2023-04-01T03:02:54.020Z,249.00
2023-04-01T03:03:53.934Z,237.90
2023-04-01T03:04:53.941Z,244.30
2023-04-01T03:05:53.912Z,248.10
2023-04-01T03:06:53.934Z,241.20
2023-04-01T03:07:53.918Z,242.00
2023-04-01T03:08:53.904Z,238.10
2023-04-01T03:09:53.893Z,237.70
2023-04-01T03:10:53.865Z,239.00
2023-04-01T03:11:53.874Z,234.60
2023-04-01T03:12:53.842Z,241.90
2023-04-01T03:13:53.837Z,237.20
2023-04-01T03:14:53.823Z,239.50
2023-04-01T03:15:53.820Z,237.10
2023-04-01T03:16:53.932Z,233.00
2023-04-01T03:17:53.846Z,234.80
2023-04-01T03:18:53.789Z,233.30
2023-04-01T03:19:53.773Z,232.50
2023-04-01T03:20:53.779Z,231.10
2023-04-01T03:21:53.814Z,228.70
2023-04-01T03:22:53.745Z,228.80
2023-04-01T03:23:53.740Z,225.00
2023-04-01T03:24:53.708Z,225.30
2023-04-01T03:25:53.704Z,228.50
2023-04-01T03:26:53.709Z,228.00
2023-04-01T03:27:53.705Z,233.50
2023-04-01T03:28:53.695Z,227.70
2023-04-01T03:29:53.706Z,224.50
2023-04-01T03:30:53.739Z,222.60
2023-04-01T03:31:53.653Z,216.20
2023-04-01T03:32:53.668Z,219.40
2023-04-01T03:33:53.655Z,218.40
2023-04-01T03:34:53.618Z,222.20
2023-04-01T03:35:53.674Z,214.40
2023-04-01T03:36:53.628Z,215.40
2023-04-01T03:37:53.638Z,223.10
2023-04-01T03:38:53.590Z,221.00
2023-04-01T03:39:53.561Z,219.70
2023-04-01T03:40:53.556Z,223.10
2023-04-01T03:41:53.551Z,218.90
2023-04-01T03:42:53.577Z,221.50
2023-04-01T03:43:53.507Z,223.60
2023-04-01T03:44:53.534Z,218.00
2023-04-01T03:45:53.519Z,219.10
2023-04-01T03:46:53.543Z,216.60
2023-04-01T03:47:53.535Z,213.00
2023-04-01T03:48:53.491Z,218.30
2023-04-01T03:49:53.445Z,216.20
2023-04-01T03:50:53.469Z,219.20
2023-04-01T03:51:53.467Z,216.10
2023-04-01T03:52:53.454Z,213.30
2023-04-01T03:53:53.416Z,207.10
2023-04-01T03:54:53.429Z,209.50
2023-04-01T03:55:53.393Z,219.30
2023-04-01T03:56:53.398Z,212.80
2023-04-01T03:57:53.395Z,206.50
2023-04-01T03:58:53.414Z,208.50
2023-04-01T03:59:53.355Z,211.80
2023-04-01T04:00:53.374Z,215.30
2023-04-01T04:01:53.339Z,209.70
2023-04-01T04:02:53.438Z,207.50
2023-04-01T04:03:53.565Z,199.80
2023-04-01T04:04:53.318Z,203.90
2023-04-01T04:05:53.323Z,205.80
2023-04-01T04:06:53.303Z,202.60
2023-04-01T04:07:53.337Z,206.30
2023-04-01T04:08:53.259Z,207.10
2023-04-01T04:09:53.242Z,206.10
2023-04-01T04:10:53.238Z,206.40
2023-04-01T04:11:53.222Z,208.70
2023-04-01T04:12:53.252Z,205.70
2023-04-01T04:13:53.260Z,210.50
2023-04-01T04:14:53.218Z,207.90
2023-04-01T04:15:53.204Z,216.70
2023-04-01T04:16:53.185Z,220.40
2023-04-01T04:17:53.334Z,214.30
2023-04-01T04:18:53.158Z,206.70
2023-04-01T04:19:53.218Z,206.10
2023-04-01T04:20:53.174Z,208.80
2023-04-01T04:21:53.124Z,210.60
2023-04-01T04:22:53.137Z,209.40
2023-04-01T04:23:53.104Z,207.80
2023-04-01T04:24:53.104Z,204.50
2023-04-01T04:25:53.089Z,206.10
2023-04-01T04:26:53.076Z,200.90
2023-04-01T04:27:53.083Z,199.60
2023-04-01T04:28:53.074Z,196.40
2023-04-01T04:29:53.052Z,192.60
2023-04-01T04:30:53.052Z,206.30
2023-04-01T04:31:53.089Z,208.80
2023-04-01T04:32:53.066Z,206.80
2023-04-01T04:33:53.058Z,204.40
2023-04-01T04:34:52.978Z,203.00
2023-04-01T04:35:52.984Z,198.50
2023-04-01T04:36:52.985Z,198.10
2023-04-01T04:37:53.080Z,200.00
2023-04-01T04:38:52.979Z,203.00
2023-04-01T04:39:52.877Z,201.90
2023-04-01T04:40:52.942Z,206.30
2023-04-01T04:41:52.916Z,203.90
2023-04-01T04:42:52.931Z,195.80
2023-04-01T04:43:52.910Z,199.40
2023-04-01T04:44:52.878Z,203.20
2023-04-01T04:45:52.915Z,201.00
2023-04-01T04:46:53.042Z,200.60
2023-04-01T04:47:52.925Z,196.60
2023-04-01T04:48:52.811Z,200.50
2023-04-01T04:49:52.837Z,200.70
2023-04-01T04:50:52.822Z,201.60
2023-04-01T04:51:52.765Z,198.10
2023-04-01T04:52:52.805Z,188.20
2023-04-01T04:53:53.188Z,193.00
2023-04-01T04:54:52.735Z,203.70
2023-04-01T04:55:52.755Z,201.80
2023-04-01T04:56:52.758Z,201.60
2023-04-01T04:57:52.716Z,201.00
2023-04-01T04:58:52.714Z,201.80
2023-04-01T04:59:52.728Z,200.40
2023-04-01T05:00:52.735Z,204.60
2023-04-01T05:01:52.869Z,210.10
2023-04-01T05:02:52.822Z,202.50
2023-04-01T05:03:52.680Z,203.00
2023-04-01T05:04:52.614Z,205.70
2023-04-01T05:05:52.615Z,199.60
2023-04-01T05:06:52.646Z,202.00
2023-04-01T05:07:52.586Z,209.80
2023-04-01T05:08:52.608Z,205.80
2023-04-01T05:09:52.608Z,208.20
2023-04-01T05:10:52.565Z,199.10
2023-04-01T05:11:52.546Z,202.00
2023-04-01T05:12:52.544Z,207.30
2023-04-01T05:13:52.568Z,206.00
2023-04-01T05:14:52.532Z,213.20
2023-04-01T05:15:52.516Z,212.60
2023-04-01T05:16:52.522Z,211.00
2023-04-01T05:17:52.528Z,211.70
2023-04-01T05:18:52.495Z,210.90
2023-04-01T05:19:52.462Z,212.00
2023-04-01T05:20:52.467Z,209.50
2023-04-01T05:21:52.451Z,208.90
2023-04-01T05:22:52.440Z,208.20
2023-04-01T05:23:52.479Z,208.10
2023-04-01T05:24:52.439Z,202.40
2023-04-01T05:25:52.409Z,203.20
2023-04-01T05:26:52.637Z,204.50
2023-04-01T05:27:52.390Z,208.50
2023-04-01T05:28:52.420Z,211.70
2023-04-01T05:29:52.369Z,208.70
2023-04-01T05:30:52.393Z,200.00
2023-04-01T05:31:52.336Z,202.20
2023-04-01T05:32:52.379Z,205.20
2023-04-01T05:33:52.345Z,205.90
2023-04-01T05:34:52.346Z,200.20
2023-04-01T05:35:52.319Z,200.00
2023-04-01T05:36:52.287Z,202.50
2023-04-01T05:37:52.318Z,198.60
2023-04-01T05:38:52.288Z,205.70
2023-04-01T05:39:52.250Z,194.20
2023-04-01T05:40:52.266Z,192.30
2023-04-01T05:41:52.280Z,197.90
2023-04-01T05:42:52.233Z,203.60
2023-04-01T05:43:52.246Z,198.40
2023-04-01T05:44:52.213Z,193.30
2023-04-01T05:45:52.237Z,201.00
2023-04-01T05:46:52.193Z,206.10
2023-04-01T05:47:52.233Z,207.70
2023-04-01T05:48:52.201Z,210.10
2023-04-01T05:49:52.152Z,196.70
2023-04-01T05:50:52.148Z,195.90
2023-04-01T05:51:52.156Z,195.40
2023-04-01T05:52:52.120Z,204.00
2023-04-01T05:53:52.168Z,205.20
2023-04-01T05:54:52.097Z,198.30
2023-04-01T05:55:52.104Z,198.20
2023-04-01T05:56:52.131Z,200.10
2023-04-01T05:57:52.068Z,200.10
2023-04-01T05:58:52.082Z,197.70
2023-04-01T05:59:52.069Z,201.40
2023-04-01T06:01:05.867Z,214.00
2023-04-01T06:01:52.052Z,211.20
2023-04-01T06:02:52.111Z,199.90
2023-04-01T06:03:52.290Z,200.50
2023-04-01T06:04:52.123Z,197.90
2023-04-01T06:05:51.984Z,205.40
2023-04-01T06:06:51.982Z,196.90
2023-04-01T06:07:51.971Z,195.90
2023-04-01T06:08:51.967Z,199.70
2023-04-01T06:09:51.968Z,202.00
2023-04-01T06:10:51.926Z,197.20
2023-04-01T06:11:51.935Z,199.60
2023-04-01T06:12:51.921Z,201.20
2023-04-01T06:13:51.958Z,201.70
2023-04-01T06:14:51.945Z,192.90
2023-04-01T06:15:51.951Z,188.60
2023-04-01T06:16:51.859Z,196.30
2023-04-01T06:17:51.900Z,201.70
2023-04-01T06:18:51.856Z,203.40
2023-04-01T06:19:51.881Z,201.20
2023-04-01T06:20:51.875Z,201.10
2023-04-01T06:21:51.833Z,204.70
2023-04-01T06:22:51.969Z,197.80
2023-04-01T06:23:51.807Z,204.30
2023-04-01T06:24:51.811Z,209.00
2023-04-01T06:25:51.788Z,207.30
2023-04-01T06:26:51.774Z,195.50
2023-04-01T06:27:51.786Z,203.40
2023-04-01T06:28:51.800Z,195.80
2023-04-01T06:29:51.848Z,205.40
2023-04-01T06:30:51.728Z,206.00
2023-04-01T06:31:51.759Z,204.60
2023-04-01T06:32:51.930Z,207.60
2023-04-01T06:33:51.714Z,206.70
2023-04-01T06:34:51.714Z,197.40
2023-04-01T06:35:51.732Z,204.90
2023-04-01T06:36:51.685Z,209.60
2023-04-01T06:37:51.668Z,206.90
2023-04-01T06:38:51.639Z,202.60
2023-04-01T06:39:51.684Z,209.20
2023-04-01T06:40:51.615Z,209.80
2023-04-01T06:41:51.637Z,207.00
2023-04-01T06:42:51.600Z,202.40
2023-04-01T06:43:51.624Z,200.20
2023-04-01T06:44:51.604Z,209.30
2023-04-01T06:45:51.721Z,218.30
2023-04-01T06:46:51.670Z,209.00
2023-04-01T06:47:51.600Z,210.30
2023-04-01T06:48:51.613Z,205.80
2023-04-01T06:49:51.554Z,202.60
2023-04-01T06:50:51.553Z,207.00
2023-04-01T06:51:51.505Z,208.00
2023-04-01T06:52:51.539Z,215.70
2023-04-01T06:53:51.571Z,217.90
2023-04-01T06:54:51.522Z,201.60
2023-04-01T06:55:51.476Z,200.50
2023-04-01T06:56:51.486Z,204.80
2023-04-01T06:57:51.463Z,204.20
2023-04-01T06:58:51.505Z,203.70
2023-04-01T06:59:51.493Z,212.20
2023-04-01T07:00:51.454Z,212.00
2023-04-01T07:01:51.449Z,201.50
2023-04-01T07:02:51.496Z,213.90
2023-04-01T07:03:51.443Z,218.00
2023-04-01T07:04:51.389Z,195.80
2023-04-01T07:05:51.447Z,189.90
2023-04-01T07:06:51.411Z,198.70
2023-04-01T07:07:51.340Z,201.40
2023-04-01T07:08:51.341Z,201.60
2023-04-01T07:09:51.351Z,201.70
2023-04-01T07:10:51.386Z,212.50
2023-04-01T07:11:51.310Z,221.80
2023-04-01T07:12:51.343Z,221.20
2023-04-01T07:13:51.318Z,219.00
2023-04-01T07:14:51.318Z,208.70
2023-04-01T07:15:51.258Z,218.60
2023-04-01T07:16:51.335Z,210.50
2023-04-01T07:17:51.266Z,205.90
2023-04-01T07:18:51.227Z,200.30
2023-04-01T07:19:51.320Z,201.10
2023-04-01T07:20:51.247Z,212.70
2023-04-01T07:21:51.213Z,211.60
2023-04-01T07:22:51.234Z,206.60
2023-04-01T07:23:51.169Z,208.90
2023-04-01T07:24:51.170Z,208.20
2023-04-01T07:25:51.171Z,190.40
2023-04-01T07:26:51.150Z,208.00
2023-04-01T07:27:51.130Z,210.60
2023-04-01T07:28:51.163Z,204.30
2023-04-01T07:29:51.111Z,198.60
2023-04-01T07:30:51.191Z,201.80
2023-04-01T07:31:51.089Z,194.30
2023-04-01T07:32:51.098Z,191.50
2023-04-01T07:33:51.228Z,195.80
2023-04-01T07:34:51.056Z,197.30
2023-04-01T07:35:51.103Z,208.90
2023-04-01T07:36:51.058Z,210.70
2023-04-01T07:37:51.038Z,196.70
2023-04-01T07:38:51.046Z,201.60
2023-04-01T07:39:51.023Z,205.00
2023-04-01T07:40:51.012Z,206.90
2023-04-01T07:41:50.986Z,202.00
2023-04-01T07:42:50.993Z,192.70
2023-04-01T07:43:50.967Z,194.60
2023-04-01T07:44:50.962Z,196.10
2023-04-01T07:45:51.048Z,191.50
2023-04-01T07:46:50.960Z,194.60
2023-04-01T07:47:50.959Z,205.30
2023-04-01T07:48:50.922Z,206.60
2023-04-01T07:49:50.906Z,192.60
2023-04-01T07:50:51.975Z,198.80
2023-04-01T07:51:51.019Z,215.80
2023-04-01T07:52:50.874Z,220.40
2023-04-01T07:53:50.866Z,214.10
2023-04-01T07:54:50.869Z,198.60
2023-04-01T07:55:50.944Z,210.50
2023-04-01T07:56:50.904Z,213.80
2023-04-01T07:57:50.822Z,210.70
2023-04-01T07:58:50.829Z,209.50
2023-04-01T07:59:50.807Z,218.90
2023-04-01T08:00:50.812Z,226.20
2023-04-01T08:01:50.819Z,225.70
2023-04-01T08:02:50.898Z,224.60
2023-04-01T08:03:50.997Z,213.80
2023-04-01T08:04:50.820Z,210.10
2023-04-01T08:05:50.784Z,218.70
2023-04-01T08:06:50.743Z,213.00
2023-04-01T08:07:50.743Z,218.60
2023-04-01T08:08:50.713Z,221.90
2023-04-01T08:09:50.711Z,217.80
2023-04-01T08:10:50.738Z,223.20
2023-04-01T08:11:50.681Z,218.50
2023-04-01T08:12:50.701Z,233.10
2023-04-01T08:13:50.679Z,222.90
2023-04-01T08:14:50.673Z,213.90
2023-04-01T08:15:50.791Z,215.10
2023-04-01T08:16:52.075Z,215.10
2023-04-01T08:17:50.680Z,221.20
2023-04-01T08:18:50.613Z,215.90
2023-04-01T08:19:50.598Z,220.50
2023-04-01T08:20:50.604Z,229.60
2023-04-01T08:21:50.618Z,222.90
2023-04-01T08:22:50.562Z,228.00
2023-04-01T08:23:50.560Z,219.70
2023-04-01T08:24:50.540Z,207.20
2023-04-01T08:25:50.625Z,202.50
2023-04-01T08:26:50.523Z,211.10
2023-04-01T08:27:50.510Z,200.60
2023-04-01T08:28:50.492Z,213.60
2023-04-01T08:29:50.482Z,215.80
2023-04-01T08:30:50.472Z,212.90
2023-04-01T08:31:50.613Z,217.00
2023-04-01T08:32:50.562Z,216.80
2023-04-01T08:33:50.471Z,222.00
2023-04-01T08:34:50.443Z,212.60
2023-04-01T08:35:50.457Z,202.30
2023-04-01T08:36:50.433Z,204.40
2023-04-01T08:37:50.424Z,209.70
2023-04-01T08:38:50.407Z,219.60
2023-04-01T08:39:50.416Z,208.50
2023-04-01T08:40:50.371Z,205.30
2023-04-01T08:41:50.458Z,205.20
2023-04-01T08:42:50.355Z,187.00
2023-04-01T08:43:50.357Z,195.50
2023-04-01T08:44:50.344Z,202.60
2023-04-01T08:45:50.398Z,201.70
2023-04-01T08:46:50.345Z,203.20
2023-04-01T08:47:50.366Z,194.30
2023-04-01T08:48:50.339Z,200.90
2023-04-01T08:49:50.297Z,197.30
2023-04-01T08:50:50.347Z,205.00
2023-04-01T08:51:50.288Z,204.20
2023-04-01T08:52:50.269Z,200.10
2023-04-01T08:53:50.254Z,221.30
2023-04-01T08:54:50.262Z,218.90
2023-04-01T08:55:50.224Z,193.20
2023-04-01T08:56:50.253Z,180.70
2023-04-01T08:57:50.562Z,178.60
2023-04-01T08:58:50.222Z,175.20
2023-04-01T08:59:50.214Z,182.50
2023-04-01T09:00:50.196Z,193.40
2023-04-01T09:01:50.223Z,199.80
2023-04-01T09:02:50.233Z,195.60
2023-04-01T09:03:50.202Z,186.20
2023-04-01T09:04:50.154Z,181.00
2023-04-01T09:05:50.171Z,193.70
2023-04-01T09:06:50.139Z,184.40
2023-04-01T09:07:50.164Z,190.90
2023-04-01T09:08:50.181Z,197.70
2023-04-01T09:09:50.137Z,192.10
2023-04-01T09:10:50.091Z,175.50
2023-04-01T09:11:50.928Z,183.80
2023-04-01T09:12:50.057Z,185.20
2023-04-01T09:13:50.050Z,179.60
2023-04-01T09:14:50.036Z,184.00
2023-04-01T09:15:50.045Z,195.00
2023-04-01T09:16:50.033Z,206.80
2023-04-01T09:17:50.020Z,202.10
2023-04-01T09:18:49.986Z,210.80
2023-04-01T09:19:49.999Z,203.80
2023-04-01T09:20:49.979Z,186.00
2023-04-01T09:21:50.028Z,183.90
2023-04-01T09:22:49.971Z,193.00
2023-04-01T09:23:50.020Z,200.30
2023-04-01T09:24:49.947Z,186.00
2023-04-01T09:25:49.927Z,192.10
2023-04-01T09:26:49.935Z,183.00
2023-04-01T09:27:49.921Z,198.80
2023-04-01T09:28:49.890Z,189.60
2023-04-01T09:29:49.905Z,172.50
2023-04-01T09:30:49.889Z,145.10
2023-04-01T09:31:49.972Z,159.50
2023-04-01T09:32:49.934Z,166.10
2023-04-01T09:33:49.836Z,175.10
2023-04-01T09:34:49.846Z,175.10
2023-04-01T09:35:49.853Z,183.30
2023-04-01T09:36:49.820Z,197.70
2023-04-01T09:37:49.862Z,192.10
2023-04-01T09:38:49.822Z,198.00
2023-04-01T09:39:49.799Z,184.60
2023-04-01T09:40:49.829Z,186.90
2023-04-01T09:41:49.771Z,178.80
2023-04-01T09:42:49.770Z,177.00
2023-04-01T09:43:49.828Z,195.70
2023-04-01T09:44:49.831Z,196.50
2023-04-01T09:45:49.825Z,200.60
2023-04-01T09:46:49.766Z,196.60
2023-04-01T09:47:49.768Z,218.00
2023-04-01T09:48:49.704Z,204.90
2023-04-01T09:49:49.838Z,183.90
2023-04-01T09:50:49.665Z,195.40
2023-04-01T09:51:49.672Z,195.30
2023-04-01T09:52:49.681Z,200.10
2023-04-01T09:53:49.646Z,201.00
2023-04-01T09:54:49.639Z,206.80
2023-04-01T09:55:49.610Z,190.00
2023-04-01T09:56:49.697Z,199.00
2023-04-01T09:57:49.618Z,217.20
2023-04-01T09:58:49.591Z,213.00
2023-04-01T09:59:49.571Z,204.80
2023-04-01T10:00:49.575Z,204.20
2023-04-01T10:01:50.037Z,220.10
2023-04-01T10:02:49.650Z,227.40
2023-04-01T10:03:49.531Z,207.70
2023-04-01T10:04:49.560Z,202.40
2023-04-01T10:05:49.560Z,208.70
2023-04-01T10:06:49.517Z,214.50
2023-04-01T10:07:49.537Z,216.60
2023-04-01T10:08:49.525Z,224.40
2023-04-01T10:09:49.461Z,197.60
2023-04-01T10:10:49.465Z,189.50
2023-04-01T10:11:49.478Z,196.10
2023-04-01T10:12:49.496Z,186.70
2023-04-01T10:13:49.424Z,185.60
2023-04-01T10:14:49.461Z,203.10
2023-04-01T10:15:49.433Z,203.90
2023-04-01T10:16:51.153Z,213.10
2023-04-01T10:17:49.456Z,211.80
2023-04-01T10:18:49.429Z,194.10
2023-04-01T10:19:49.361Z,206.50
2023-04-01T10:20:49.361Z,210.80
2023-04-01T10:21:49.372Z,221.80
2023-04-01T10:22:49.407Z,227.90
2023-04-01T10:23:49.336Z,222.50
2023-04-01T10:24:49.349Z,228.10
2023-04-01T10:25:49.315Z,232.00
2023-04-01T10:26:49.403Z,222.80
2023-04-01T10:27:49.398Z,223.50
2023-04-01T10:28:49.303Z,229.60
2023-04-01T10:29:49.281Z,225.00
2023-04-01T10:30:49.261Z,228.50
2023-04-01T10:31:49.275Z,224.50
2023-04-01T10:32:49.310Z,214.80
2023-04-01T10:33:49.271Z,209.90
2023-04-01T10:34:49.219Z,202.10
2023-04-01T10:35:49.266Z,194.00
2023-04-01T10:36:49.194Z,184.80
2023-04-01T10:37:49.216Z,195.60
2023-04-01T10:38:49.192Z,175.50
2023-04-01T10:39:49.165Z,195.20
2023-04-01T10:40:49.247Z,214.20
2023-04-01T10:41:49.173Z,200.70
2023-04-01T10:42:49.149Z,203.50
2023-04-01T10:43:49.196Z,219.30
2023-04-01T10:44:49.121Z,222.10
2023-04-01T10:45:49.187Z,212.60
2023-04-01T10:46:49.107Z,182.40
2023-04-01T10:47:49.107Z,169.70
2023-04-01T10:48:49.264Z,172.40
2023-04-01T10:49:49.136Z,172.70
2023-04-01T10:50:49.058Z,156.60
2023-04-01T10:51:49.035Z,175.10
2023-04-01T10:52:49.039Z,157.80
2023-04-01T10:53:49.049Z,150.30
2023-04-01T10:54:49.001Z,163.40
2023-04-01T10:55:49.144Z,159.60
2023-04-01T10:56:48.987Z,153.60
2023-04-01T10:57:48.977Z,151.60
2023-04-01T10:58:48.991Z,162.30
2023-04-01T10:59:48.946Z,153.00
2023-04-01T11:00:49.072Z,143.00
2023-04-01T11:01:54.893Z,141.20
2023-04-01T11:02:49.018Z,128.60
2023-04-01T11:03:49.202Z,114.00
2023-04-01T11:04:48.917Z,114.10
2023-04-01T11:05:48.884Z,125.30
2023-04-01T11:06:49.819Z,129.50
2023-04-01T11:08:02.823Z,116.10
2023-04-01T11:08:48.885Z,116.20
2023-04-01T11:09:48.879Z,115.10
2023-04-01T11:10:48.841Z,128.60
2023-04-01T11:11:48.858Z,142.80
2023-04-01T11:12:48.855Z,155.60
2023-04-01T11:13:48.820Z,148.90
2023-04-01T11:14:48.806Z,154.10
2023-04-01T11:15:49.044Z,158.40
2023-04-01T11:16:48.788Z,162.40
2023-04-01T11:17:49.739Z,164.60
2023-04-01T11:18:48.782Z,166.90
2023-04-01T11:19:48.773Z,168.60
2023-04-01T11:20:48.748Z,172.60
2023-04-01T11:21:48.758Z,165.70
2023-04-01T11:22:48.739Z,163.90
2023-04-01T11:24:01.891Z,174.60
2023-04-01T11:24:48.721Z,188.10
2023-04-01T11:25:48.691Z,200.90
2023-04-01T11:26:48.751Z,191.10
2023-04-01T11:27:48.670Z,184.40
2023-04-01T11:28:48.735Z,198.40
2023-04-01T11:29:59.229Z,195.20
2023-04-01T11:30:48.642Z,188.00
2023-04-01T11:31:48.670Z,193.10
2023-04-01T11:32:49.936Z,189.20
2023-04-01T11:33:48.734Z,192.20
2023-04-01T11:34:48.610Z,200.10
2023-04-01T11:35:49.047Z,201.10
2023-04-01T11:36:48.650Z,173.70
2023-04-01T11:37:48.600Z,167.70
2023-04-01T11:38:48.581Z,186.00
2023-04-01T11:39:48.569Z,187.00
2023-04-01T11:40:48.604Z,199.30
2023-04-01T11:41:48.644Z,205.20
2023-04-01T11:42:48.560Z,193.00
2023-04-01T11:43:48.531Z,191.00
2023-04-01T11:44:48.526Z,188.70
2023-04-01T11:45:48.508Z,205.20
2023-04-01T11:46:48.606Z,209.30
2023-04-01T11:47:48.546Z,199.60
2023-04-01T11:48:48.468Z,193.80
2023-04-01T11:49:48.505Z,191.10
2023-04-01T11:50:48.433Z,193.10
2023-04-01T11:51:48.401Z,204.50
2023-04-01T11:52:48.437Z,186.80
2023-04-01T11:53:48.432Z,193.40
2023-04-01T11:54:48.631Z,222.50
2023-04-01T11:55:50.463Z,222.70
2023-04-01T11:56:48.398Z,217.10
2023-04-01T11:57:48.378Z,210.00
2023-04-01T11:58:48.347Z,203.30
2023-04-01T11:59:48.351Z,191.00
2023-04-01T12:00:48.315Z,210.20
2023-04-01T12:01:48.321Z,199.40
2023-04-01T12:02:48.395Z,202.50
2023-04-01T12:03:48.454Z,205.20
2023-04-01T12:04:48.358Z,197.20
2023-04-01T12:05:48.275Z,205.90
2023-04-01T12:06:48.360Z,202.70
2023-04-01T12:07:48.243Z,204.00
2023-04-01T12:08:48.267Z,216.50
2023-04-01T12:09:48.272Z,230.10
2023-04-01T12:10:48.367Z,219.90
2023-04-01T12:11:48.235Z,212.50
2023-04-01T12:13:00.062Z,214.30
2023-04-01T12:13:48.187Z,209.60
2023-04-01T12:14:48.222Z,211.80
2023-04-01T12:15:48.153Z,216.80
2023-04-01T12:16:48.269Z,210.60
2023-04-01T12:17:48.180Z,213.00
2023-04-01T12:18:48.150Z,206.80
2023-04-01T12:19:48.186Z,200.30
2023-04-01T12:20:48.135Z,196.10
2023-04-01T12:21:48.110Z,195.40
2023-04-01T12:22:48.109Z,204.00
2023-04-01T12:23:48.084Z,209.50
2023-04-01T12:24:48.116Z,211.30
2023-04-01T12:25:48.071Z,209.70
2023-04-01T12:26:48.071Z,216.80
2023-04-01T12:27:48.698Z,219.70
2023-04-01T12:28:48.046Z,225.70